sensor_id;sensor_type;location;lat;lon;timestamp;P1;durP1;ratioP1;P2;durP2;ratioP2
19205;SDS011;59358;52.134;5.596;2023-02-11T00:01:05;40.72;;;7.95;;
19205;SDS011;59358;52.134;5.596;2023-02-11T00:03:32;26.55;;;7.45;;
19205;SDS011;59358;52.134;5.596;2023-02-11T00:06:02;23.13;;;6.13;;
19205;SDS011;59358;52.134;5.596;2023-02-11T00:08:33;26.90;;;6.63;;
19205;SDS011;59358;52.134;5.596;2023-02-11T00:11:00;26.00;;;7.68;;
19205;SDS011;59358;52.134;5.596;2023-02-11T00:13:27;34.63;;;8.43;;
19205;SDS011;59358;52.134;5.596;2023-02-11T00:15:55;28.88;;;7.85;;
19205;SDS011;59358;52.134;5.596;2023-02-11T00:18:22;19.73;;;6.57;;
19205;SDS011;59358;52.134;5.596;2023-02-11T00:20:49;31.70;;;7.97;;
19205;SDS011;59358;52.134;5.596;2023-02-11T00:23:17;30.50;;;9.20;;
19205;SDS011;59358;52.134;5.596;2023-02-11T00:25:44;28.02;;;7.65;;
19205;SDS011;59358;52.134;5.596;2023-02-11T00:28:11;29.65;;;6.60;;
19205;SDS011;59358;52.134;5.596;2023-02-11T00:30:38;26.83;;;7.47;;
19205;SDS011;59358;52.134;5.596;2023-02-11T00:33:05;34.13;;;6.45;;
19205;SDS011;59358;52.134;5.596;2023-02-11T00:35:32;35.67;;;6.82;;
19205;SDS011;59358;52.134;5.596;2023-02-11T00:37:58;29.92;;;8.23;;
19205;SDS011;59358;52.134;5.596;2023-02-11T00:40:28;27.02;;;6.00;;
19205;SDS011;59358;52.134;5.596;2023-02-11T00:42:55;21.65;;;6.13;;
19205;SDS011;59358;52.134;5.596;2023-02-11T00:45:22;30.80;;;6.40;;
19205;SDS011;59358;52.134;5.596;2023-02-11T00:47:48;27.77;;;6.97;;
19205;SDS011;59358;52.134;5.596;2023-02-11T00:50:15;27.40;;;6.45;;
19205;SDS011;59358;52.134;5.596;2023-02-11T00:52:42;27.50;;;6.82;;
19205;SDS011;59358;52.134;5.596;2023-02-11T00:55:10;21.75;;;5.55;;
19205;SDS011;59358;52.134;5.596;2023-02-11T00:57:38;32.40;;;6.32;;
19205;SDS011;59358;52.134;5.596;2023-02-11T01:00:05;17.80;;;5.90;;
19205;SDS011;59358;52.134;5.596;2023-02-11T01:02:33;24.50;;;5.80;;
19205;SDS011;59358;52.134;5.596;2023-02-11T01:05:00;34.83;;;6.72;;
19205;SDS011;59358;52.134;5.596;2023-02-11T01:07:27;29.13;;;6.30;;
19205;SDS011;59358;52.134;5.596;2023-02-11T01:09:54;25.85;;;8.10;;
19205;SDS011;59358;52.134;5.596;2023-02-11T01:12:21;27.30;;;7.28;;
19205;SDS011;59358;52.134;5.596;2023-02-11T01:14:49;26.27;;;6.57;;
19205;SDS011;59358;52.134;5.596;2023-02-11T01:17:16;28.63;;;6.70;;
19205;SDS011;59358;52.134;5.596;2023-02-11T01:19:43;25.95;;;6.13;;
19205;SDS011;59358;52.134;5.596;2023-02-11T01:22:10;25.08;;;6.65;;
19205;SDS011;59358;52.134;5.596;2023-02-11T01:24:37;32.35;;;6.75;;
19205;SDS011;59358;52.134;5.596;2023-02-11T01:27:03;24.75;;;6.55;;
19205;SDS011;59358;52.134;5.596;2023-02-11T01:29:30;27.25;;;7.25;;
19205;SDS011;59358;52.134;5.596;2023-02-11T01:31:58;26.60;;;6.90;;
19205;SDS011;59358;52.134;5.596;2023-02-11T01:34:25;29.70;;;7.97;;
19205;SDS011;59358;52.134;5.596;2023-02-11T01:36:55;25.30;;;7.35;;
19205;SDS011;59358;52.134;5.596;2023-02-11T01:39:22;32.42;;;7.18;;
19205;SDS011;59358;52.134;5.596;2023-02-11T01:41:49;30.75;;;8.40;;
19205;SDS011;59358;52.134;5.596;2023-02-11T01:44:23;28.08;;;8.38;;
19205;SDS011;59358;52.134;5.596;2023-02-11T01:46:52;27.98;;;9.05;;
19205;SDS011;59358;52.134;5.596;2023-02-11T01:49:21;24.67;;;8.50;;
19205;SDS011;59358;52.134;5.596;2023-02-11T01:51:52;33.53;;;8.55;;
19205;SDS011;59358;52.134;5.596;2023-02-11T01:54:23;38.50;;;9.45;;
19205;SDS011;59358;52.134;5.596;2023-02-11T01:57:12;28.00;;;8.27;;
19205;SDS011;59358;52.134;5.596;2023-02-11T01:59:55;32.38;;;9.45;;
19205;SDS011;59358;52.134;5.596;2023-02-11T02:02:30;30.67;;;10.52;;
19205;SDS011;59358;52.134;5.596;2023-02-11T02:05:02;29.27;;;9.23;;
19205;SDS011;59358;52.134;5.596;2023-02-11T02:07:35;25.30;;;8.48;;
19205;SDS011;59358;52.134;5.596;2023-02-11T02:10:05;32.85;;;10.32;;
19205;SDS011;59358;52.134;5.596;2023-02-11T02:12:36;31.75;;;9.52;;
19205;SDS011;59358;52.134;5.596;2023-02-11T02:15:19;24.13;;;9.13;;
19205;SDS011;59358;52.134;5.596;2023-02-11T02:17:53;28.50;;;8.60;;
19205;SDS011;59358;52.134;5.596;2023-02-11T02:20:43;34.70;;;10.10;;
19205;SDS011;59358;52.134;5.596;2023-02-11T02:23:48;35.70;;;8.93;;
19205;SDS011;59358;52.134;5.596;2023-02-11T02:29:35;28.23;;;9.55;;
19205;SDS011;59358;52.134;5.596;2023-02-11T02:32:33;27.25;;;8.98;;
19205;SDS011;59358;52.134;5.596;2023-02-11T02:35:09;29.95;;;8.88;;
19205;SDS011;59358;52.134;5.596;2023-02-11T02:37:46;32.35;;;9.23;;
19205;SDS011;59358;52.134;5.596;2023-02-11T02:40:17;33.05;;;8.77;;
19205;SDS011;59358;52.134;5.596;2023-02-11T02:42:48;26.00;;;8.70;;
19205;SDS011;59358;52.134;5.596;2023-02-11T02:45:17;22.02;;;8.73;;
19205;SDS011;59358;52.134;5.596;2023-02-11T02:47:46;21.48;;;7.80;;
19205;SDS011;59358;52.134;5.596;2023-02-11T02:50:13;24.08;;;8.80;;
19205;SDS011;59358;52.134;5.596;2023-02-11T02:52:45;20.75;;;8.40;;
19205;SDS011;59358;52.134;5.596;2023-02-11T02:55:24;30.02;;;9.23;;
19205;SDS011;59358;52.134;5.596;2023-02-11T02:58:23;30.80;;;8.80;;
19205;SDS011;59358;52.134;5.596;2023-02-11T03:00:59;29.08;;;8.80;;
19205;SDS011;59358;52.134;5.596;2023-02-11T03:03:35;26.00;;;8.75;;
19205;SDS011;59358;52.134;5.596;2023-02-11T03:06:09;22.77;;;8.73;;
19205;SDS011;59358;52.134;5.596;2023-02-11T03:08:41;29.88;;;8.95;;
19205;SDS011;59358;52.134;5.596;2023-02-11T03:11:11;26.90;;;8.95;;
19205;SDS011;59358;52.134;5.596;2023-02-11T03:13:41;31.77;;;10.05;;
19205;SDS011;59358;52.134;5.596;2023-02-11T03:16:12;26.33;;;9.90;;
19205;SDS011;59358;52.134;5.596;2023-02-11T03:18:43;26.65;;;10.07;;
19205;SDS011;59358;52.134;5.596;2023-02-11T03:21:15;32.58;;;9.85;;
19205;SDS011;59358;52.134;5.596;2023-02-11T03:23:43;22.75;;;9.02;;
19205;SDS011;59358;52.134;5.596;2023-02-11T03:26:16;31.92;;;10.02;;
19205;SDS011;59358;52.134;5.596;2023-02-11T03:28:48;33.25;;;11.43;;
19205;SDS011;59358;52.134;5.596;2023-02-11T03:31:24;26.13;;;10.27;;
19205;SDS011;59358;52.134;5.596;2023-02-11T03:33:58;33.33;;;10.43;;
19205;SDS011;59358;52.134;5.596;2023-02-11T03:36:31;24.85;;;10.38;;
19205;SDS011;59358;52.134;5.596;2023-02-11T03:39:06;29.35;;;11.13;;
19205;SDS011;59358;52.134;5.596;2023-02-11T03:41:36;30.80;;;11.23;;
19205;SDS011;59358;52.134;5.596;2023-02-11T03:44:04;32.50;;;12.02;;
19205;SDS011;59358;52.134;5.596;2023-02-11T03:46:34;35.30;;;11.90;;
19205;SDS011;59358;52.134;5.596;2023-02-11T03:49:07;28.67;;;11.55;;
19205;SDS011;59358;52.134;5.596;2023-02-11T03:51:37;33.22;;;13.45;;
19205;SDS011;59358;52.134;5.596;2023-02-11T03:54:04;33.75;;;11.52;;
19205;SDS011;59358;52.134;5.596;2023-02-11T03:56:37;29.02;;;11.18;;
19205;SDS011;59358;52.134;5.596;2023-02-11T03:59:06;34.17;;;11.88;;
19205;SDS011;59358;52.134;5.596;2023-02-11T04:01:33;39.03;;;12.45;;
19205;SDS011;59358;52.134;5.596;2023-02-11T04:04:00;31.52;;;13.10;;
19205;SDS011;59358;52.134;5.596;2023-02-11T04:06:28;39.88;;;14.07;;
19205;SDS011;59358;52.134;5.596;2023-02-11T04:08:55;44.85;;;14.20;;
19205;SDS011;59358;52.134;5.596;2023-02-11T04:11:22;33.53;;;12.98;;
19205;SDS011;59358;52.134;5.596;2023-02-11T04:13:49;40.10;;;14.13;;
19205;SDS011;59358;52.134;5.596;2023-02-11T04:16:16;35.22;;;13.90;;
19205;SDS011;59358;52.134;5.596;2023-02-11T04:18:43;39.60;;;14.15;;
19205;SDS011;59358;52.134;5.596;2023-02-11T04:21:10;34.35;;;13.15;;
19205;SDS011;59358;52.134;5.596;2023-02-11T04:23:38;33.08;;;14.63;;
19205;SDS011;59358;52.134;5.596;2023-02-11T04:26:05;39.28;;;15.80;;
19205;SDS011;59358;52.134;5.596;2023-02-11T04:28:32;41.42;;;15.18;;
19205;SDS011;59358;52.134;5.596;2023-02-11T04:31:00;42.53;;;15.68;;
19205;SDS011;59358;52.134;5.596;2023-02-11T04:33:27;40.70;;;16.17;;
19205;SDS011;59358;52.134;5.596;2023-02-11T04:35:54;41.40;;;16.27;;
19205;SDS011;59358;52.134;5.596;2023-02-11T04:38:21;34.90;;;15.98;;
19205;SDS011;59358;52.134;5.596;2023-02-11T04:40:50;41.75;;;16.52;;
19205;SDS011;59358;52.134;5.596;2023-02-11T04:43:17;44.65;;;17.48;;
19205;SDS011;59358;52.134;5.596;2023-02-11T04:45:44;48.83;;;16.73;;
19205;SDS011;59358;52.134;5.596;2023-02-11T04:48:11;34.72;;;16.25;;
19205;SDS011;59358;52.134;5.596;2023-02-11T04:50:37;46.90;;;17.00;;
19205;SDS011;59358;52.134;5.596;2023-02-11T04:53:05;35.67;;;17.88;;
19205;SDS011;59358;52.134;5.596;2023-02-11T04:55:31;46.75;;;17.70;;
19205;SDS011;59358;52.134;5.596;2023-02-11T04:58:00;35.17;;;17.23;;
19205;SDS011;59358;52.134;5.596;2023-02-11T05:00:27;46.88;;;18.70;;
19205;SDS011;59358;52.134;5.596;2023-02-11T05:02:54;44.67;;;19.77;;
19205;SDS011;59358;52.134;5.596;2023-02-11T05:05:20;43.13;;;18.73;;
19205;SDS011;59358;52.134;5.596;2023-02-11T05:07:48;49.70;;;20.15;;
19205;SDS011;59358;52.134;5.596;2023-02-11T05:10:14;48.10;;;19.83;;
19205;SDS011;59358;52.134;5.596;2023-02-11T05:12:42;42.17;;;20.15;;
19205;SDS011;59358;52.134;5.596;2023-02-11T05:15:10;43.20;;;20.05;;
19205;SDS011;59358;52.134;5.596;2023-02-11T05:17:37;51.13;;;20.33;;
19205;SDS011;59358;52.134;5.596;2023-02-11T05:20:04;41.25;;;20.35;;
19205;SDS011;59358;52.134;5.596;2023-02-11T05:22:32;44.90;;;21.08;;
19205;SDS011;59358;52.134;5.596;2023-02-11T05:24:58;42.78;;;20.77;;
19205;SDS011;59358;52.134;5.596;2023-02-11T05:27:25;43.33;;;21.05;;
19205;SDS011;59358;52.134;5.596;2023-02-11T05:29:52;48.10;;;20.75;;
19205;SDS011;59358;52.134;5.596;2023-02-11T05:32:20;47.58;;;21.05;;
19205;SDS011;59358;52.134;5.596;2023-02-11T05:34:47;50.38;;;20.90;;
19205;SDS011;59358;52.134;5.596;2023-02-11T05:37:14;47.42;;;21.98;;
19205;SDS011;59358;52.134;5.596;2023-02-11T05:39:41;53.58;;;22.75;;
19205;SDS011;59358;52.134;5.596;2023-02-11T05:42:08;47.50;;;22.35;;
19205;SDS011;59358;52.134;5.596;2023-02-11T05:44:35;50.65;;;23.08;;
19205;SDS011;59358;52.134;5.596;2023-02-11T05:47:02;53.65;;;21.45;;
19205;SDS011;59358;52.134;5.596;2023-02-11T05:49:30;49.83;;;22.40;;
19205;SDS011;59358;52.134;5.596;2023-02-11T05:52:00;47.92;;;22.98;;
19205;SDS011;59358;52.134;5.596;2023-02-11T05:54:26;42.75;;;22.67;;
19205;SDS011;59358;52.134;5.596;2023-02-11T05:56:53;52.03;;;23.27;;
19205;SDS011;59358;52.134;5.596;2023-02-11T05:59:20;51.22;;;22.27;;
19205;SDS011;59358;52.134;5.596;2023-02-11T06:01:47;44.70;;;24.45;;
19205;SDS011;59358;52.134;5.596;2023-02-11T06:04:14;41.95;;;20.65;;
19205;SDS011;59358;52.134;5.596;2023-02-11T06:06:42;55.15;;;23.25;;
19205;SDS011;59358;52.134;5.596;2023-02-11T06:09:09;53.88;;;23.10;;
19205;SDS011;59358;52.134;5.596;2023-02-11T06:11:36;56.75;;;22.50;;
19205;SDS011;59358;52.134;5.596;2023-02-11T06:14:03;42.80;;;21.70;;
19205;SDS011;59358;52.134;5.596;2023-02-11T06:16:30;54.15;;;24.85;;
19205;SDS011;59358;52.134;5.596;2023-02-11T06:18:57;52.22;;;23.52;;
19205;SDS011;59358;52.134;5.596;2023-02-11T06:21:24;43.17;;;23.45;;
19205;SDS011;59358;52.134;5.596;2023-02-11T06:23:52;48.72;;;24.05;;
19205;SDS011;59358;52.134;5.596;2023-02-11T06:26:20;54.67;;;25.58;;
19205;SDS011;59358;52.134;5.596;2023-02-11T06:28:48;51.30;;;25.40;;
19205;SDS011;59358;52.134;5.596;2023-02-11T06:31:16;52.42;;;25.00;;
19205;SDS011;59358;52.134;5.596;2023-02-11T06:33:43;53.38;;;25.77;;
19205;SDS011;59358;52.134;5.596;2023-02-11T06:36:11;59.03;;;24.90;;
19205;SDS011;59358;52.134;5.596;2023-02-11T06:38:39;56.33;;;25.00;;
19205;SDS011;59358;52.134;5.596;2023-02-11T06:41:09;58.28;;;27.02;;
19205;SDS011;59358;52.134;5.596;2023-02-11T06:43:36;61.38;;;24.63;;
19205;SDS011;59358;52.134;5.596;2023-02-11T06:46:04;63.20;;;26.05;;
19205;SDS011;59358;52.134;5.596;2023-02-11T06:48:31;61.58;;;26.75;;
19205;SDS011;59358;52.134;5.596;2023-02-11T06:51:00;63.45;;;27.15;;
19205;SDS011;59358;52.134;5.596;2023-02-11T06:53:28;75.07;;;26.35;;
19205;SDS011;59358;52.134;5.596;2023-02-11T06:55:55;55.67;;;26.60;;
19205;SDS011;59358;52.134;5.596;2023-02-11T06:58:23;56.15;;;27.67;;
19205;SDS011;59358;52.134;5.596;2023-02-11T07:00:50;57.05;;;27.00;;
19205;SDS011;59358;52.134;5.596;2023-02-11T07:03:17;57.38;;;27.73;;
19205;SDS011;59358;52.134;5.596;2023-02-11T07:05:44;65.07;;;28.15;;
19205;SDS011;59358;52.134;5.596;2023-02-11T07:08:11;62.58;;;26.40;;
19205;SDS011;59358;52.134;5.596;2023-02-11T07:10:38;58.85;;;27.90;;
19205;SDS011;59358;52.134;5.596;2023-02-11T07:13:05;65.72;;;26.58;;
19205;SDS011;59358;52.134;5.596;2023-02-11T07:15:35;64.55;;;26.63;;
19205;SDS011;59358;52.134;5.596;2023-02-11T07:18:02;61.17;;;26.90;;
19205;SDS011;59358;52.134;5.596;2023-02-11T07:20:29;60.83;;;27.63;;
19205;SDS011;59358;52.134;5.596;2023-02-11T07:22:56;63.50;;;27.45;;
19205;SDS011;59358;52.134;5.596;2023-02-11T07:25:24;56.72;;;26.42;;
19205;SDS011;59358;52.134;5.596;2023-02-11T07:27:51;59.88;;;28.27;;
19205;SDS011;59358;52.134;5.596;2023-02-11T07:30:17;52.88;;;26.40;;
19205;SDS011;59358;52.134;5.596;2023-02-11T07:32:46;58.25;;;27.92;;
19205;SDS011;59358;52.134;5.596;2023-02-11T07:35:13;61.00;;;27.38;;
19205;SDS011;59358;52.134;5.596;2023-02-11T07:37:39;57.55;;;27.70;;
19205;SDS011;59358;52.134;5.596;2023-02-11T07:40:07;52.38;;;26.58;;
19205;SDS011;59358;52.134;5.596;2023-02-11T07:42:35;56.38;;;26.73;;
19205;SDS011;59358;52.134;5.596;2023-02-11T07:45:01;59.83;;;26.20;;
19205;SDS011;59358;52.134;5.596;2023-02-11T07:47:28;56.20;;;28.23;;
19205;SDS011;59358;52.134;5.596;2023-02-11T07:49:57;57.75;;;26.67;;
19205;SDS011;59358;52.134;5.596;2023-02-11T07:52:23;58.47;;;27.42;;
19205;SDS011;59358;52.134;5.596;2023-02-11T07:54:50;71.10;;;28.10;;
19205;SDS011;59358;52.134;5.596;2023-02-11T07:57:17;54.90;;;27.02;;
19205;SDS011;59358;52.134;5.596;2023-02-11T07:59:44;62.10;;;27.10;;
19205;SDS011;59358;52.134;5.596;2023-02-11T08:02:10;68.88;;;30.38;;
19205;SDS011;59358;52.134;5.596;2023-02-11T08:04:38;63.67;;;28.33;;
19205;SDS011;59358;52.134;5.596;2023-02-11T08:07:06;72.85;;;30.63;;
19205;SDS011;59358;52.134;5.596;2023-02-11T08:09:33;56.30;;;26.92;;
19205;SDS011;59358;52.134;5.596;2023-02-11T08:11:59;71.70;;;30.48;;
19205;SDS011;59358;52.134;5.596;2023-02-11T08:14:26;58.25;;;27.88;;
19205;SDS011;59358;52.134;5.596;2023-02-11T08:16:54;64.18;;;30.35;;
19205;SDS011;59358;52.134;5.596;2023-02-11T08:19:20;57.30;;;28.63;;
19205;SDS011;59358;52.134;5.596;2023-02-11T08:21:47;68.10;;;29.90;;
19205;SDS011;59358;52.134;5.596;2023-02-11T08:24:15;61.28;;;30.58;;
19205;SDS011;59358;52.134;5.596;2023-02-11T08:26:42;73.72;;;31.33;;
19205;SDS011;59358;52.134;5.596;2023-02-11T08:29:10;64.63;;;32.00;;
19205;SDS011;59358;52.134;5.596;2023-02-11T08:31:40;67.30;;;29.33;;
19205;SDS011;59358;52.134;5.596;2023-02-11T08:34:08;63.38;;;29.15;;
19205;SDS011;59358;52.134;5.596;2023-02-11T08:36:36;68.60;;;30.85;;
19205;SDS011;59358;52.134;5.596;2023-02-11T08:39:04;65.50;;;30.55;;
19205;SDS011;59358;52.134;5.596;2023-02-11T08:41:34;63.38;;;27.70;;
19205;SDS011;59358;52.134;5.596;2023-02-11T08:44:01;65.10;;;31.13;;
19205;SDS011;59358;52.134;5.596;2023-02-11T08:46:28;63.15;;;29.50;;
19205;SDS011;59358;52.134;5.596;2023-02-11T08:48:56;59.30;;;28.05;;
19205;SDS011;59358;52.134;5.596;2023-02-11T08:51:23;69.80;;;29.58;;
19205;SDS011;59358;52.134;5.596;2023-02-11T08:53:51;68.70;;;28.77;;
19205;SDS011;59358;52.134;5.596;2023-02-11T08:56:19;70.55;;;30.60;;
19205;SDS011;59358;52.134;5.596;2023-02-11T08:58:48;64.70;;;30.02;;
19205;SDS011;59358;52.134;5.596;2023-02-11T09:01:16;64.20;;;28.27;;
19205;SDS011;59358;52.134;5.596;2023-02-11T09:03:44;54.97;;;28.13;;
19205;SDS011;59358;52.134;5.596;2023-02-11T09:06:12;57.03;;;27.90;;
19205;SDS011;59358;52.134;5.596;2023-02-11T09:08:42;54.38;;;27.98;;
19205;SDS011;59358;52.134;5.596;2023-02-11T09:11:12;60.85;;;29.38;;
19205;SDS011;59358;52.134;5.596;2023-02-11T09:13:39;61.75;;;30.63;;
19205;SDS011;59358;52.134;5.596;2023-02-11T09:16:13;58.17;;;31.42;;
19205;SDS011;59358;52.134;5.596;2023-02-11T09:18:43;58.55;;;27.70;;
19205;SDS011;59358;52.134;5.596;2023-02-11T09:21:11;66.72;;;28.83;;
19205;SDS011;59358;52.134;5.596;2023-02-11T09:23:40;55.40;;;27.50;;
19205;SDS011;59358;52.134;5.596;2023-02-11T09:26:09;59.78;;;29.25;;
19205;SDS011;59358;52.134;5.596;2023-02-11T09:28:38;58.45;;;26.33;;
19205;SDS011;59358;52.134;5.596;2023-02-11T09:31:05;53.08;;;25.65;;
19205;SDS011;59358;52.134;5.596;2023-02-11T09:33:34;48.35;;;25.38;;
19205;SDS011;59358;52.134;5.596;2023-02-11T09:36:03;49.20;;;26.77;;
19205;SDS011;59358;52.134;5.596;2023-02-11T09:38:31;51.00;;;27.17;;
19205;SDS011;59358;52.134;5.596;2023-02-11T09:40:58;51.17;;;25.88;;
19205;SDS011;59358;52.134;5.596;2023-02-11T09:43:30;54.00;;;25.42;;
19205;SDS011;59358;52.134;5.596;2023-02-11T09:46:01;48.92;;;25.58;;
19205;SDS011;59358;52.134;5.596;2023-02-11T09:48:30;46.65;;;23.75;;
19205;SDS011;59358;52.134;5.596;2023-02-11T09:51:06;45.65;;;25.02;;
19205;SDS011;59358;52.134;5.596;2023-02-11T09:53:41;44.80;;;25.45;;
19205;SDS011;59358;52.134;5.596;2023-02-11T09:56:09;48.15;;;25.38;;
19205;SDS011;59358;52.134;5.596;2023-02-11T09:58:38;46.80;;;24.85;;
19205;SDS011;59358;52.134;5.596;2023-02-11T10:01:07;49.17;;;25.23;;
19205;SDS011;59358;52.134;5.596;2023-02-11T10:06:40;45.92;;;24.88;;
19205;SDS011;59358;52.134;5.596;2023-02-11T10:12:07;43.33;;;22.88;;
19205;SDS011;59358;52.134;5.596;2023-02-11T10:14:54;43.65;;;23.38;;
19205;SDS011;59358;52.134;5.596;2023-02-11T10:17:39;44.65;;;22.52;;
19205;SDS011;59358;52.134;5.596;2023-02-11T10:20:22;44.20;;;21.75;;
19205;SDS011;59358;52.134;5.596;2023-02-11T10:22:56;37.38;;;21.50;;
19205;SDS011;59358;52.134;5.596;2023-02-11T10:25:26;36.13;;;21.77;;
19205;SDS011;59358;52.134;5.596;2023-02-11T10:27:59;32.45;;;20.63;;
19205;SDS011;59358;52.134;5.596;2023-02-11T10:30:28;35.60;;;19.23;;
19205;SDS011;59358;52.134;5.596;2023-02-11T10:32:59;39.88;;;19.77;;
19205;SDS011;59358;52.134;5.596;2023-02-11T10:35:31;36.30;;;20.27;;
19205;SDS011;59358;52.134;5.596;2023-02-11T10:37:58;34.42;;;19.52;;
19205;SDS011;59358;52.134;5.596;2023-02-11T10:40:29;32.88;;;18.70;;
19205;SDS011;59358;52.134;5.596;2023-02-11T10:42:57;35.70;;;19.60;;
19205;SDS011;59358;52.134;5.596;2023-02-11T10:45:29;29.50;;;17.98;;
19205;SDS011;59358;52.134;5.596;2023-02-11T10:47:59;22.08;;;16.45;;
19205;SDS011;59358;52.134;5.596;2023-02-11T10:50:27;28.23;;;18.55;;
19205;SDS011;59358;52.134;5.596;2023-02-11T10:53:16;34.38;;;18.65;;
19205;SDS011;59358;52.134;5.596;2023-02-11T10:55:48;30.48;;;21.77;;
19205;SDS011;59358;52.134;5.596;2023-02-11T10:58:22;27.02;;;19.33;;
19205;SDS011;59358;52.134;5.596;2023-02-11T11:00:51;28.95;;;15.35;;
19205;SDS011;59358;52.134;5.596;2023-02-11T11:03:21;30.70;;;16.52;;
19205;SDS011;59358;52.134;5.596;2023-02-11T11:05:50;21.35;;;13.98;;
19205;SDS011;59358;52.134;5.596;2023-02-11T11:08:19;22.80;;;13.63;;
19205;SDS011;59358;52.134;5.596;2023-02-11T11:10:47;28.58;;;14.90;;
19205;SDS011;59358;52.134;5.596;2023-02-11T11:13:29;22.35;;;14.90;;
19205;SDS011;59358;52.134;5.596;2023-02-11T11:16:07;25.77;;;14.32;;
19205;SDS011;59358;52.134;5.596;2023-02-11T11:18:42;17.83;;;12.05;;
19205;SDS011;59358;52.134;5.596;2023-02-11T11:21:11;20.67;;;12.77;;
19205;SDS011;59358;52.134;5.596;2023-02-11T11:23:45;19.23;;;12.73;;
19205;SDS011;59358;52.134;5.596;2023-02-11T11:26:14;20.08;;;12.88;;
19205;SDS011;59358;52.134;5.596;2023-02-11T11:28:49;20.85;;;13.63;;
19205;SDS011;59358;52.134;5.596;2023-02-11T11:31:20;19.10;;;12.52;;
19205;SDS011;59358;52.134;5.596;2023-02-11T11:33:49;22.65;;;12.63;;
19205;SDS011;59358;52.134;5.596;2023-02-11T11:36:23;19.13;;;13.18;;
19205;SDS011;59358;52.134;5.596;2023-02-11T11:38:58;19.83;;;13.10;;
19205;SDS011;59358;52.134;5.596;2023-02-11T11:41:28;18.90;;;12.65;;
19205;SDS011;59358;52.134;5.596;2023-02-11T11:43:58;19.27;;;12.35;;
19205;SDS011;59358;52.134;5.596;2023-02-11T11:46:28;20.88;;;12.45;;
19205;SDS011;59358;52.134;5.596;2023-02-11T11:48:59;18.50;;;12.40;;
19205;SDS011;59358;52.134;5.596;2023-02-11T11:51:32;17.95;;;11.85;;
19205;SDS011;59358;52.134;5.596;2023-02-11T11:54:03;18.83;;;12.32;;
19205;SDS011;59358;52.134;5.596;2023-02-11T11:56:34;18.67;;;11.63;;
19205;SDS011;59358;52.134;5.596;2023-02-11T11:59:08;19.60;;;11.90;;
19205;SDS011;59358;52.134;5.596;2023-02-11T12:01:38;18.92;;;12.10;;
19205;SDS011;59358;52.134;5.596;2023-02-11T12:04:24;21.45;;;11.50;;
19205;SDS011;59358;52.134;5.596;2023-02-11T12:07:20;20.67;;;12.18;;
19205;SDS011;59358;52.134;5.596;2023-02-11T12:10:08;18.15;;;12.57;;
19205;SDS011;59358;52.134;5.596;2023-02-11T12:12:57;19.20;;;12.07;;
19205;SDS011;59358;52.134;5.596;2023-02-11T12:15:35;19.10;;;12.43;;
19205;SDS011;59358;52.134;5.596;2023-02-11T12:18:14;22.13;;;12.07;;
19205;SDS011;59358;52.134;5.596;2023-02-11T12:20:50;17.40;;;10.80;;
19205;SDS011;59358;52.134;5.596;2023-02-11T12:23:32;16.92;;;10.98;;
19205;SDS011;59358;52.134;5.596;2023-02-11T12:26:11;18.17;;;11.32;;
19205;SDS011;59358;52.134;5.596;2023-02-11T12:28:43;20.70;;;11.23;;
19205;SDS011;59358;52.134;5.596;2023-02-11T12:31:26;15.63;;;9.73;;
19205;SDS011;59358;52.134;5.596;2023-02-11T12:34:23;15.07;;;9.82;;
19205;SDS011;59358;52.134;5.596;2023-02-11T12:37:06;14.75;;;9.77;;
19205;SDS011;59358;52.134;5.596;2023-02-11T12:39:44;11.70;;;8.50;;
19205;SDS011;59358;52.134;5.596;2023-02-11T12:42:24;11.43;;;8.43;;
19205;SDS011;59358;52.134;5.596;2023-02-11T12:45:26;12.52;;;9.30;;
19205;SDS011;59358;52.134;5.596;2023-02-11T12:48:12;11.98;;;8.38;;
19205;SDS011;59358;52.134;5.596;2023-02-11T12:50:52;10.05;;;8.10;;
19205;SDS011;59358;52.134;5.596;2023-02-11T12:53:26;13.93;;;8.80;;
19205;SDS011;59358;52.134;5.596;2023-02-11T12:56:05;12.00;;;9.07;;
19205;SDS011;59358;52.134;5.596;2023-02-11T12:58:43;12.50;;;8.95;;
19205;SDS011;59358;52.134;5.596;2023-02-11T13:01:15;12.95;;;8.27;;
19205;SDS011;59358;52.134;5.596;2023-02-11T13:03:46;11.27;;;8.07;;
19205;SDS011;59358;52.134;5.596;2023-02-11T13:06:16;10.57;;;7.97;;
19205;SDS011;59358;52.134;5.596;2023-02-11T13:08:48;14.77;;;8.80;;
19205;SDS011;59358;52.134;5.596;2023-02-11T13:11:19;13.40;;;8.27;;
19205;SDS011;59358;52.134;5.596;2023-02-11T13:13:51;16.98;;;8.77;;
19205;SDS011;59358;52.134;5.596;2023-02-11T13:16:26;14.05;;;8.75;;
19205;SDS011;59358;52.134;5.596;2023-02-11T13:19:00;14.98;;;8.50;;
19205;SDS011;59358;52.134;5.596;2023-02-11T13:21:35;12.50;;;7.82;;
19205;SDS011;59358;52.134;5.596;2023-02-11T13:24:22;13.95;;;7.78;;
19205;SDS011;59358;52.134;5.596;2023-02-11T13:26:56;11.60;;;8.20;;
19205;SDS011;59358;52.134;5.596;2023-02-11T13:29:32;17.50;;;7.70;;
19205;SDS011;59358;52.134;5.596;2023-02-11T13:32:08;13.73;;;8.98;;
19205;SDS011;59358;52.134;5.596;2023-02-11T13:37:25;15.80;;;7.93;;
19205;SDS011;59358;52.134;5.596;2023-02-11T13:39:56;11.93;;;7.75;;
19205;SDS011;59358;52.134;5.596;2023-02-11T13:42:25;13.30;;;8.55;;
19205;SDS011;59358;52.134;5.596;2023-02-11T13:44:54;11.00;;;7.70;;
19205;SDS011;59358;52.134;5.596;2023-02-11T13:47:24;11.70;;;7.45;;
19205;SDS011;59358;52.134;5.596;2023-02-11T13:49:54;13.07;;;7.03;;
19205;SDS011;59358;52.134;5.596;2023-02-11T13:52:23;13.68;;;8.07;;
19205;SDS011;59358;52.134;5.596;2023-02-11T13:54:54;11.38;;;8.30;;
19205;SDS011;59358;52.134;5.596;2023-02-11T13:57:36;13.88;;;7.63;;
19205;SDS011;59358;52.134;5.596;2023-02-11T14:06:28;14.98;;;8.10;;
19205;SDS011;59358;52.134;5.596;2023-02-11T14:09:34;15.43;;;8.30;;
19205;SDS011;59358;52.134;5.596;2023-02-11T14:14:57;15.32;;;8.90;;
19205;SDS011;59358;52.134;5.596;2023-02-11T14:17:43;15.82;;;9.88;;
19205;SDS011;59358;52.134;5.596;2023-02-11T14:23:03;14.85;;;8.77;;
19205;SDS011;59358;52.134;5.596;2023-02-11T14:25:32;23.05;;;15.20;;
19205;SDS011;59358;52.134;5.596;2023-02-11T14:28:00;14.63;;;9.57;;
19205;SDS011;59358;52.134;5.596;2023-02-11T14:30:37;14.07;;;8.23;;
19205;SDS011;59358;52.134;5.596;2023-02-11T14:33:15;10.77;;;8.52;;
19205;SDS011;59358;52.134;5.596;2023-02-11T14:35:58;11.23;;;7.95;;
19205;SDS011;59358;52.134;5.596;2023-02-11T14:38:35;13.63;;;8.50;;
19205;SDS011;59358;52.134;5.596;2023-02-11T14:41:15;9.55;;;7.90;;
19205;SDS011;59358;52.134;5.596;2023-02-11T14:43:46;14.98;;;8.60;;
19205;SDS011;59358;52.134;5.596;2023-02-11T14:46:16;11.02;;;8.55;;
19205;SDS011;59358;52.134;5.596;2023-02-11T14:48:46;12.50;;;8.20;;
19205;SDS011;59358;52.134;5.596;2023-02-11T14:51:18;10.57;;;7.70;;
19205;SDS011;59358;52.134;5.596;2023-02-11T14:53:48;13.57;;;7.70;;
19205;SDS011;59358;52.134;5.596;2023-02-11T14:56:19;16.52;;;8.52;;
19205;SDS011;59358;52.134;5.596;2023-02-11T14:58:48;10.93;;;7.60;;
19205;SDS011;59358;52.134;5.596;2023-02-11T15:01:27;11.98;;;7.78;;
19205;SDS011;59358;52.134;5.596;2023-02-11T15:03:57;9.63;;;7.20;;
19205;SDS011;59358;52.134;5.596;2023-02-11T15:06:25;13.68;;;8.85;;
19205;SDS011;59358;52.134;5.596;2023-02-11T15:08:56;13.88;;;8.88;;
19205;SDS011;59358;52.134;5.596;2023-02-11T15:11:26;12.90;;;7.32;;